Time;durP1;ratioP1;P1;durP2;ratioP2;P2;SDS_P1;SDS_P2;PMS_P1;PMS_P2;Temp;Humidity;BMP_temperature;BMP_pressure;BME280_temperature;BME280_humidity;BME280_pressure;Samples;Min_cycle;Max_cycle;Signal;HPM_P1;HPM_P2
2022/08/11 00:01:57;;;;;;;3.45;1.50;;;;;;;23.17;42.22;100616.81;5036172;28;20045;-86
2022/08/11 00:04:33;;;;;;;3.33;1.67;;;;;;;23.12;42.47;100620.94;5035628;28;20068;-85
2022/08/11 00:07:03;;;;;;;3.88;1.70;;;;;;;23.06;42.54;100618.84;5035152;28;20045;-85
2022/08/11 00:09:36;;;;;;;2.25;1.60;;;;;;;23.00;43.42;100618.47;5036008;28;20498;-84
2022/08/11 00:12:12;;;;;;;5.95;1.95;;;;;;;22.97;43.79;100612.53;5036591;28;20057;-85
2022/08/11 00:14:40;;;;;;;2.50;1.67;;;;;;;22.95;43.15;100609.97;5036421;28;20057;-87
2022/08/11 00:17:10;;;;;;;4.35;1.90;;;;;;;22.91;43.70;100608.59;5036057;28;20049;-86
2022/08/11 00:19:42;;;;;;;4.15;2.00;;;;;;;22.88;43.63;100611.59;5018442;28;20054;-87
2022/08/11 00:22:29;;;;;;;5.32;1.85;;;;;;;22.86;43.13;100611.72;5036109;28;20521;-85
2022/08/11 00:24:57;;;;;;;3.30;1.88;;;;;;;22.83;43.60;100611.19;5036766;28;20049;-85
2022/08/11 00:27:35;;;;;;;6.95;1.90;;;;;;;22.77;44.17;100607.25;5020059;28;20048;-85
2022/08/11 00:30:04;;;;;;;3.83;1.60;;;;;;;22.77;43.82;100617.97;5037427;28;20049;-86
2022/08/11 00:32:32;;;;;;;3.97;2.00;;;;;;;22.74;43.72;100612.91;5036584;28;20049;-86
2022/08/11 00:35:00;;;;;;;5.53;2.20;;;;;;;22.72;44.09;100614.91;5018886;28;20057;-87
2022/08/11 00:37:49;;;;;;;3.95;1.63;;;;;;;22.69;44.10;100616.00;5036880;28;20049;-86
2022/08/11 00:40:33;;;;;;;2.55;1.67;;;;;;;22.64;44.27;100618.28;5020359;28;20060;-86
2022/08/11 00:43:23;;;;;;;4.65;1.83;;;;;;;22.64;43.84;100619.16;5038756;28;20061;-85
2022/08/11 00:46:11;;;;;;;5.00;2.00;;;;;;;22.58;44.04;100618.88;5028440;28;20052;-85
2022/08/11 00:48:55;;;;;;;4.55;1.70;;;;;;;22.55;44.27;100608.44;5021018;28;20049;-86
2022/08/11 00:51:54;;;;;;;5.20;1.70;;;;;;;22.49;44.25;100602.63;5038639;28;20047;-85
2022/08/11 00:54:43;;;;;;;2.42;1.70;;;;;;;22.48;44.69;100609.00;5039425;28;20061;-85
2022/08/11 00:57:52;;;;;;;2.67;1.50;;;;;;;22.40;44.16;100606.19;5039501;28;20053;-83
2022/08/11 01:00:22;;;;;;;5.53;2.20;;;;;;;22.40;44.46;100608.88;5037828;28;20424;-87
2022/08/11 01:03:07;;;;;;;3.85;1.83;;;;;;;22.38;44.27;100610.84;5040133;28;20053;-84
2022/08/11 01:05:36;;;;;;;2.97;2.00;;;;;;;22.32;44.63;100608.75;5039679;28;20057;-85
2022/08/11 01:08:33;;;;;;;4.45;1.80;;;;;;;22.23;44.86;100611.28;5021717;28;20057;-83
2022/08/11 01:11:50;;;;;;;5.30;1.90;;;;;;;22.18;44.37;100610.88;5040538;28;20052;-87
2022/08/11 01:14:44;;;;;;;20.30;2.83;;;;;;;22.16;44.89;100604.78;5009072;28;20049;-85
2022/08/11 01:17:49;;;;;;;6.18;2.28;;;;;;;22.11;44.96;100601.69;5023748;28;20050;-85
2022/08/11 01:20:58;;;;;;;4.28;1.75;;;;;;;22.06;44.94;100609.31;5043082;28;20073;-87
2022/08/11 01:23:46;;;;;;;8.35;2.40;;;;;;;22.05;45.51;100600.44;5041802;28;20450;-85
2022/08/11 01:26:50;;;;;;;1.92;1.58;;;;;;;21.98;45.09;100604.69;5039971;28;20076;-85
2022/08/11 01:30:06;;;;;;;4.80;1.83;;;;;;;21.95;44.75;100613.84;5036611;28;20521;-85
2022/08/11 01:33:24;;;;;;;5.57;2.10;;;;;;;21.94;45.40;100616.69;4955611;29;20081;-85
2022/08/11 01:36:31;;;;;;;3.28;1.90;;;;;;;21.91;44.93;100623.16;4924730;29;20059;-85
2022/08/11 01:39:37;;;;;;;3.08;1.80;;;;;;;21.87;45.21;100619.91;5036409;28;20061;-84
2022/08/11 01:45:35;;;;;;;4.33;2.00;;;;;;;21.81;45.35;100623.16;5038740;28;20064;-87
2022/08/11 01:48:14;;;;;;;4.30;1.70;;;;;;;21.81;45.87;100624.97;5038535;28;20053;-85
2022/08/11 01:51:18;;;;;;;9.18;2.30;;;;;;;21.76;45.66;100630.78;5037789;28;20150;-87
2022/08/11 01:54:12;;;;;;;1.60;1.50;;;;;;;21.73;45.55;100623.84;5038674;28;20485;-86
2022/08/11 01:57:08;;;;;;;7.30;1.80;;;;;;;21.78;45.54;100626.09;5038260;28;20045;-84
2022/08/11 01:59:47;;;;;;;3.50;1.70;;;;;;;21.74;45.97;100628.22;5020694;28;20105;-85
2022/08/11 02:02:46;;;;;;;2.85;1.60;;;;;;;21.68;46.02;100623.38;5037499;28;20046;-85
2022/08/11 02:05:26;;;;;;;2.38;1.88;;;;;;;21.70;46.20;100620.56;5037562;28;20093;-85
2022/08/11 02:08:08;;;;;;;3.55;1.77;;;;;;;21.69;46.42;100630.44;5037459;28;20057;-84
2022/08/11 02:13:48;;;;;;;6.15;2.03;;;;;;;21.64;46.77;100624.63;5035203;28;20053;-85
2022/08/11 02:16:36;;;;;;;3.58;1.90;;;;;;;21.63;46.69;100625.63;5035696;28;20054;-84
2022/08/11 02:25:06;;;;;;;5.18;1.70;;;;;;;21.58;46.89;100611.81;5034388;28;20053;-85
2022/08/11 02:27:40;;;;;;;2.50;1.70;;;;;;;21.55;46.86;100612.06;5034052;28;20052;-84
2022/08/11 02:30:12;;;;;;;2.00;1.65;;;;;;;21.51;46.82;100616.03;5032740;28;20482;-84
2022/08/11 02:35:54;;;;;;;2.60;1.65;;;;;;;21.41;46.47;100616.03;5034125;28;20073;-84
2022/08/11 02:38:42;;;;;;;5.22;1.90;;;;;;;21.35;46.83;100620.91;5032920;28;20095;-85
2022/08/11 02:44:27;;;;;;;3.30;1.90;;;;;;;21.28;47.13;100610.91;5034698;28;20618;-83
2022/08/11 02:47:13;;;;;;;5.80;2.08;;;;;;;21.24;46.88;100620.19;5034355;28;20485;-84
2022/08/11 02:49:55;;;;;;;7.50;2.60;;;;;;;21.20;47.16;100616.94;5033560;28;20413;-84
2022/08/11 02:52:58;;;;;;;2.33;1.52;;;;;;;21.20;47.16;100611.59;5033829;28;20132;-84
2022/08/11 02:55:52;;;;;;;5.22;1.83;;;;;;;21.14;46.90;100618.31;5033894;28;20045;-83
2022/08/11 02:59:48;;;;;;;2.75;1.90;;;;;;;21.11;46.96;100621.28;5033675;28;20491;-83
2022/08/11 03:01:58;;;;;;;7.55;1.88;;;;;;;21.07;47.26;100619.84;5033226;28;20058;-84
2022/08/11 03:04:57;;;;;;;6.15;1.80;;;;;;;21.04;46.97;100618.28;5034527;28;20053;-84
2022/08/11 03:07:33;;;;;;;2.63;1.83;;;;;;;21.05;47.55;100617.28;5033543;28;20514;-84
2022/08/11 03:10:12;;;;;;;2.70;1.90;;;;;;;21.00;47.93;100621.38;5033753;28;20128;-83
2022/08/11 03:16:47;;;;;;;3.33;2.13;;;;;;;20.94;47.09;100620.91;5033593;28;20466;-85
2022/08/11 03:19:30;;;;;;;2.92;1.88;;;;;;;20.92;47.23;100619.34;5013531;28;20480;-83
2022/08/11 03:22:16;;;;;;;2.75;2.08;;;;;;;20.92;47.71;100622.03;5033204;28;20061;-86
2022/08/11 03:24:56;;;;;;;6.70;1.85;;;;;;;20.88;47.39;100616.13;5034138;28;20109;-85
2022/08/11 03:27:36;;;;;;;6.20;2.33;;;;;;;20.88;48.13;100616.13;5033806;28;20053;-85
2022/08/11 03:30:16;;;;;;;5.10;2.08;;;;;;;20.83;47.92;100618.31;5033337;28;20085;-87
2022/08/11 03:36:24;;;;;;;2.97;2.20;;;;;;;20.81;47.83;100617.59;5034457;28;20050;-84
2022/08/11 03:39:03;;;;;;;3.95;1.80;;;;;;;20.80;47.96;100618.56;5032474;28;20084;-84
2022/08/11 03:42:01;;;;;;;3.83;1.75;;;;;;;20.78;48.21;100612.53;5031330;28;20490;-84
2022/08/11 03:44:36;;;;;;;4.03;1.80;;;;;;;20.81;47.58;100606.88;4988727;28;20059;-84
2022/08/11 03:47:40;;;;;;;2.95;1.73;;;;;;;20.73;48.14;100617.41;5032078;28;20053;-85
2022/08/11 03:50:59;;;;;;;4.07;2.03;;;;;;;20.71;47.80;100617.56;5031925;28;20140;-85
2022/08/11 03:53:46;;;;;;;2.40;1.88;;;;;;;20.72;48.16;100613.91;5014680;28;20115;-84
2022/08/11 03:56:37;;;;;;;5.13;2.28;;;;;;;20.67;48.49;100613.47;5032119;28;20049;-84
2022/08/11 03:59:16;;;;;;;3.28;1.73;;;;;;;20.68;48.14;100605.25;5032042;28;20057;-83
2022/08/11 04:02:07;;;;;;;4.80;2.17;;;;;;;20.61;48.16;100612.16;5032086;28;20076;-84
2022/08/11 04:05:08;;;;;;;6.07;1.88;;;;;;;20.59;48.27;100616.78;5030673;28;20053;-85
2022/08/11 04:08:04;;;;;;;2.85;2.00;;;;;;;20.61;48.44;100620.19;5031598;28;20522;-85
2022/08/11 04:11:07;;;;;;;6.45;2.22;;;;;;;20.59;48.29;100611.41;5031374;28;20513;-84
2022/08/11 04:13:48;;;;;;;6.18;2.08;;;;;;;20.61;48.86;100604.13;5029896;28;20048;-85
2022/08/11 04:16:33;;;;;;;5.68;2.15;;;;;;;20.62;48.56;100605.81;5031629;28;20466;-86
2022/08/11 04:19:09;;;;;;;4.35;2.00;;;;;;;20.59;49.12;100602.56;5030769;28;20049;-88
2022/08/11 04:22:03;;;;;;;3.85;1.90;;;;;;;20.55;48.32;100601.97;5030779;28;20425;-88
2022/08/11 04:24:54;;;;;;;5.03;1.98;;;;;;;20.54;48.58;100609.16;5030560;28;20053;-88
2022/08/11 04:27:39;;;;;;;1.65;1.55;;;;;;;20.56;48.11;100603.69;5029843;28;20448;-87
2022/08/11 04:30:13;;;;;;;4.82;1.83;;;;;;;20.53;48.53;100606.59;5029797;28;20084;-89
2022/08/11 04:33:02;;;;;;;4.68;2.00;;;;;;;20.47;48.82;100604.44;5031186;28;20081;-89
2022/08/11 04:35:58;;;;;;;2.03;1.60;;;;;;;20.45;48.59;100604.59;5030760;28;20085;-90
2022/08/11 04:38:44;;;;;;;2.33;1.85;;;;;;;20.43;48.35;100599.38;5013560;28;20057;-90
2022/08/11 04:41:31;;;;;;;2.75;1.90;;;;;;;20.46;48.57;100598.28;5013578;28;20107;-89
2022/08/11 04:44:01;;;;;;;4.22;1.92;;;;;;;20.44;48.37;100590.38;5029515;28;20049;-88
2022/08/11 04:46:46;;;;;;;2.70;1.60;;;;;;;20.40;48.82;100593.44;5030425;28;20407;-87
2022/08/11 05:02:16;;;;;;;6.60;2.30;;;;;;;20.43;49.02;100604.72;5030435;28;20053;-87
2022/08/11 05:07:44;;;;;;;4.55;1.98;;;;;;;20.50;48.85;100604.19;5030288;28;20052;-87
2022/08/11 05:10:40;;;;;;;3.47;1.70;;;;;;;20.55;48.49;100609.97;5029996;28;20060;-87
2022/08/11 05:36:20;;;;;;;2.78;1.50;;;;;;;20.94;49.72;100607.53;5030097;28;20059;-86
2022/08/11 05:58:38;;;;;;;3.90;1.90;;;;;;;21.41;48.83;100608.81;5029361;28;20617;-86
2022/08/11 06:01:10;;;;;;;2.72;1.38;;;;;;;21.48;49.17;100615.31;5029633;28;20049;-86
2022/08/11 06:06:27;;;;;;;4.25;1.52;;;;;;;21.61;49.31;100611.53;5033120;28;20542;-87
2022/08/11 06:08:56;;;;;;;2.88;1.40;;;;;;;21.68;49.30;100614.50;5032789;28;20057;-86
2022/08/11 06:11:24;;;;;;;2.88;1.38;;;;;;;21.74;49.07;100611.28;5015877;28;20115;-87
2022/08/11 06:14:10;;;;;;;2.50;1.65;;;;;;;21.84;49.04;100613.97;5033567;28;20164;-87
2022/08/11 06:16:40;;;;;;;5.38;1.85;;;;;;;21.89;49.02;100611.72;5033399;28;20057;-86
2022/08/11 06:19:07;;;;;;;2.90;1.48;;;;;;;21.96;49.10;100615.53;5032928;28;20332;-85
2022/08/11 06:21:35;;;;;;;4.18;1.52;;;;;;;22.03;48.99;100620.31;5015447;28;20517;-87
2022/08/11 06:24:13;;;;;;;3.72;1.75;;;;;;;22.07;48.58;100613.69;5032974;28;20049;-88
2022/08/11 06:26:46;;;;;;;2.30;1.52;;;;;;;22.18;48.49;100624.28;5015358;28;20062;-88
2022/08/11 06:29:40;;;;;;;3.53;1.55;;;;;;;22.25;48.67;100630.75;4971608;28;20053;-88
2022/08/11 06:32:35;;;;;;;3.03;1.52;;;;;;;22.34;48.66;100623.69;4957962;28;20055;-88
2022/08/11 06:35:29;;;;;;;4.45;1.58;;;;;;;22.39;48.53;100620.59;4972614;28;20142;-89
2022/08/11 06:38:05;;;;;;;3.05;1.60;;;;;;;22.49;47.73;100632.13;4971605;28;20054;-90
2022/08/11 06:41:29;;;;;;;1.67;1.42;;;;;;;22.54;47.25;100622.81;4971403;28;20399;-89
2022/08/11 06:47:14;;;;;;;2.55;1.73;;;;;;;22.72;47.24;100620.25;4982493;28;20046;-87
2022/08/11 06:52:37;;;;;;;2.28;1.30;;;;;;;22.87;46.49;100624.16;5032804;28;20053;-85
2022/08/11 06:55:11;;;;;;;1.95;1.40;;;;;;;22.94;46.10;100623.56;5032108;28;20081;-85
2022/08/11 07:00:46;;;;;;;3.78;1.30;;;;;;;23.15;45.88;100623.31;5031858;28;20053;-85
2022/08/11 07:03:18;;;;;;;3.75;1.48;;;;;;;23.21;45.58;100629.94;5032057;28;20537;-86
2022/08/11 07:05:54;;;;;;;3.90;1.60;;;;;;;23.28;45.06;100623.81;5032330;28;20057;-85
2022/08/11 07:17:48;;;;;;;3.40;1.10;;;;;;;23.69;44.67;100622.59;5032853;28;20047;-85
2022/08/11 07:28:57;;;;;;;3.83;1.40;;;;;;;24.02;43.72;100622.06;5032250;28;20064;-85
2022/08/11 07:31:42;;;;;;;1.85;1.15;;;;;;;24.07;43.80;100625.97;5014277;28;20053;-85
2022/08/11 07:34:31;;;;;;;7.35;1.30;;;;;;;24.16;43.52;100623.41;5031181;28;20057;-85
2022/08/11 07:37:02;;;;;;;2.00;1.50;;;;;;;24.28;43.80;100627.53;5031901;28;20065;-85
2022/08/11 07:39:32;;;;;;;3.45;1.77;;;;;;;24.34;43.14;100620.69;5014226;28;20057;-85
2022/08/11 07:42:05;;;;;;;5.85;1.30;;;;;;;24.42;43.20;100622.56;5032286;28;20124;-85
2022/08/11 07:48:10;;;;;;;5.33;1.73;;;;;;;24.52;43.43;100625.19;5032262;28;20056;-85
2022/08/11 07:53:01;;;;;;;2.45;1.40;;;;;;;24.76;43.04;100619.09;5033595;28;20140;-86
2022/08/11 07:55:30;;;;;;;2.97;1.15;;;;;;;24.85;42.85;100614.59;5033743;28;20475;-86
2022/08/11 08:17:59;;;;;;;4.63;1.38;;;;;;;25.59;42.47;100622.16;5031748;28;20057;-85
2022/08/11 08:20:48;;;;;;;1.60;1.20;;;;;;;25.69;42.23;100619.31;5031089;28;20046;-85
2022/08/11 08:23:31;;;;;;;1.67;1.25;;;;;;;25.81;42.33;100619.81;5030796;28;20057;-86
2022/08/11 08:26:57;;;;;;;5.40;1.27;;;;;;;25.92;41.46;100628.59;5013764;28;20103;-85
2022/08/11 08:31:49;;;;;;;5.43;1.67;;;;;;;26.19;41.63;100622.03;5030863;28;20053;-85
2022/08/11 08:34:17;;;;;;;2.80;1.60;;;;;;;26.32;41.60;100621.56;5013875;28;20057;-85
2022/08/11 08:36:47;;;;;;;3.85;1.60;;;;;;;26.44;41.82;100618.47;5030208;28;20311;-85
2022/08/11 08:39:15;;;;;;;3.15;1.30;;;;;;;26.56;41.32;100618.97;5031245;28;20049;-85
2022/08/11 08:41:42;;;;;;;1.55;1.45;;;;;;;26.67;41.11;100622.16;5031438;28;20061;-84
2022/08/11 08:44:13;;;;;;;3.58;1.58;;;;;;;26.79;40.75;100619.06;5031225;28;20107;-85
2022/08/11 08:47:00;;;;;;;2.85;1.50;;;;;;;26.92;40.99;100619.38;5031084;28;20049;-86
2022/08/11 08:49:32;;;;;;;5.25;1.38;;;;;;;27.03;41.11;100620.88;5013026;28;19921;-85
2022/08/11 08:52:08;;;;;;;2.03;1.15;;;;;;;27.18;39.81;100618.28;5031839;28;20493;-85
2022/08/11 08:55:01;;;;;;;2.38;1.40;;;;;;;27.32;39.22;100618.53;5017318;28;20058;-85
2022/08/11 08:57:31;;;;;;;3.97;1.63;;;;;;;27.45;39.63;100615.28;5030696;28;20622;-85
2022/08/11 09:00:06;;;;;;;1.90;1.35;;;;;;;27.58;39.57;100620.06;5029325;28;20049;-86
2022/08/11 09:02:38;;;;;;;3.17;1.20;;;;;;;27.70;39.53;100612.44;5032249;28;20222;-85
2022/08/11 09:05:06;;;;;;;2.50;1.00;;;;;;;27.81;38.80;100622.00;5030804;28;20604;-85
2022/08/11 09:07:33;;;;;;;2.28;1.15;;;;;;;27.92;38.72;100616.16;5031074;28;20061;-85
2022/08/11 09:10:07;;;;;;;1.85;1.25;;;;;;;28.04;38.55;100616.59;5031468;28;20469;-85
2022/08/11 09:12:34;;;;;;;3.15;1.35;;;;;;;28.16;38.83;100619.69;5031108;28;20057;-85
2022/08/11 09:15:13;;;;;;;4.50;1.50;;;;;;;28.29;38.73;100618.25;5030433;28;20053;-86
2022/08/11 09:17:47;;;;;;;1.15;1.05;;;;;;;28.40;37.59;100615.06;5030425;28;20045;-86
2022/08/11 09:20:25;;;;;;;2.05;1.15;;;;;;;28.51;37.28;100621.91;5030518;28;20057;-85
2022/08/11 09:28:58;;;;;;;1.60;1.23;;;;;;;28.91;36.11;100616.25;5030434;28;20077;-86
2022/08/11 09:31:25;;;;;;;2.95;1.10;;;;;;;29.00;35.52;100612.41;5030337;28;20061;-85
2022/08/11 09:33:54;;;;;;;2.85;1.30;;;;;;;29.09;35.69;100606.88;5012491;28;20403;-85
2022/08/11 09:41:54;;;;;;;3.55;0.95;;;;;;;29.40;35.03;100597.66;5033975;28;20137;-86
2022/08/11 09:44:49;;;;;;;2.65;1.00;;;;;;;29.50;34.13;100600.06;5034115;28;20053;-86
2022/08/11 09:47:26;;;;;;;3.80;1.00;;;;;;;29.60;33.83;100597.88;5033939;28;20053;-86
2022/08/11 09:50:01;;;;;;;2.03;1.17;;;;;;;29.68;33.18;100594.22;5033927;28;20056;-86
2022/08/11 09:52:39;;;;;;;1.67;1.23;;;;;;;29.77;33.38;100598.47;5034119;28;20049;-86
2022/08/11 09:55:26;;;;;;;1.13;1.02;;;;;;;29.91;33.51;100598.59;5033614;28;20531;-86
2022/08/11 10:01:00;;;;;;;2.13;1.08;;;;;;;30.06;33.24;100600.38;5033668;28;20083;-86
2022/08/11 10:03:30;;;;;;;6.82;1.45;;;;;;;30.14;32.29;100597.56;5033568;28;20570;-86
2022/08/11 10:08:59;;;;;;;1.55;1.20;;;;;;;30.30;33.41;100586.41;5033126;28;20141;-86
2022/08/11 10:11:27;;;;;;;22.17;2.60;;;;;;;30.38;33.49;100590.00;5032965;28;20049;-85
2022/08/11 10:17:07;;;;;;;6.80;1.60;;;;;;;30.55;31.88;100577.78;5033821;28;20065;-86
2022/08/11 10:19:38;;;;;;;2.25;1.38;;;;;;;30.64;32.25;100577.59;5031703;28;20057;-85
2022/08/11 10:27:47;;;;;;;1.90;1.30;;;;;;;30.88;31.94;100568.16;5032891;28;20065;-84
2022/08/11 10:36:34;;;;;;;1.27;1.02;;;;;;;31.16;31.77;100559.03;5033089;28;20053;-85
2022/08/11 10:39:03;;;;;;;2.58;1.20;;;;;;;31.26;30.62;100558.63;5033500;28;20050;-85
2022/08/11 10:44:42;;;;;;;2.08;1.20;;;;;;;31.46;31.22;100555.13;5032746;28;20057;-85
2022/08/11 11:01:04;;;;;;;2.50;1.23;;;;;;;32.49;30.66;100553.03;5032303;28;20053;-85
2022/08/11 11:03:35;;;;;;;2.95;1.50;;;;;;;32.85;30.94;100548.06;5032173;28;20053;-85
2022/08/11 11:06:32;;;;;;;1.30;1.20;;;;;;;33.35;30.74;100532.94;5032153;28;20053;-86
2022/08/11 11:09:05;;;;;;;1.17;1.08;;;;;;;34.04;30.21;100534.03;5032136;28;20041;-84
2022/08/11 11:17:55;;;;;;;2.05;1.20;;;;;;;36.08;26.39;100539.31;5032055;28;20053;-86
2022/08/11 11:20:25;;;;;;;1.33;1.00;;;;;;;36.77;25.44;100535.03;5031560;28;20049;-88
2022/08/11 11:23:08;;;;;;;2.22;1.17;;;;;;;37.32;25.32;100528.34;5016729;28;20073;-85
2022/08/11 11:26:09;;;;;;;2.65;1.08;;;;;;;37.83;25.45;100525.63;5030705;28;20053;-85
2022/08/11 11:28:54;;;;;;;2.00;1.40;;;;;;;38.37;25.47;100523.34;5031538;28;20526;-87
2022/08/11 11:31:34;;;;;;;2.60;1.10;;;;;;;38.80;24.92;100518.94;5014751;28;20159;-86
2022/08/11 11:34:27;;;;;;;3.40;0.90;;;;;;;39.20;25.94;100513.28;5032468;28;20404;-86
2022/08/11 11:36:56;;;;;;;0.90;0.90;;;;;;;39.64;23.84;100516.94;5036963;28;20075;-86
2022/08/11 11:39:26;;;;;;;1.00;0.90;;;;;;;39.94;23.07;100518.22;5040776;28;20060;-86
2022/08/11 11:41:55;;;;;;;2.55;1.10;;;;;;;40.22;23.13;100519.78;5041108;28;20626;-86
2022/08/11 11:44:23;;;;;;;2.47;1.08;;;;;;;40.49;22.76;100517.97;5037679;28;20056;-85
2022/08/11 11:46:51;;;;;;;2.28;1.20;;;;;;;40.68;22.23;100509.19;5033423;28;20068;-85
2022/08/11 11:49:21;;;;;;;3.17;1.17;;;;;;;40.86;22.32;100508.72;5032812;28;20045;-86
2022/08/11 11:51:54;;;;;;;2.00;1.05;;;;;;;41.07;21.34;100497.66;5032980;28;20065;-86
2022/08/11 11:54:24;;;;;;;3.25;1.10;;;;;;;41.25;21.92;100501.00;5014644;28;20119;-86
2022/08/11 11:56:53;;;;;;;1.80;0.90;;;;;;;41.42;20.45;100495.22;5033145;28;20189;-86
2022/08/11 12:02:08;;;;;;;1.55;1.10;;;;;;;41.70;20.65;100497.66;5031497;28;20517;-87
2022/08/11 12:04:41;;;;;;;1.10;0.95;;;;;;;41.80;20.08;100483.81;5031775;28;20091;-85
2022/08/11 12:09:57;;;;;;;11.90;1.50;;;;;;;42.09;19.87;100480.41;5031979;28;20049;-86
2022/08/11 12:15:11;;;;;;;1.55;0.90;;;;;;;42.39;19.82;100478.63;5033590;28;20088;-86
2022/08/11 12:17:38;;;;;;;2.38;0.90;;;;;;;42.55;19.32;100470.22;5031178;28;20495;-86
2022/08/11 12:20:06;;;;;;;3.30;0.80;;;;;;;42.66;19.76;100457.19;5030865;28;20052;-86
2022/08/11 12:28:48;;;;;;;4.07;1.20;;;;;;;43.10;19.19;100449.94;5032003;28;20049;-86
2022/08/11 12:31:15;;;;;;;1.30;1.00;;;;;;;43.25;18.79;100454.50;5032386;28;20518;-85
2022/08/11 12:33:43;;;;;;;1.40;1.10;;;;;;;43.37;18.45;100448.56;5030892;28;20049;-85
2022/08/11 12:36:15;;;;;;;2.05;1.08;;;;;;;43.53;19.14;100445.66;5014039;28;20275;-86
2022/08/11 12:38:46;;;;;;;3.33;1.20;;;;;;;43.65;18.42;100451.63;5032639;28;20045;-84
2022/08/11 12:46:58;;;;;;;2.67;1.00;;;;;;;44.17;17.23;100445.44;5033037;28;20061;-86
2022/08/11 12:52:24;;;;;;;1.85;0.98;;;;;;;44.45;16.79;100433.69;5032348;28;20061;-83
2022/08/11 12:55:12;;;;;;;1.05;0.90;;;;;;;44.49;17.75;100437.53;5032934;28;20053;-85
2022/08/11 13:06:07;;;;;;;1.13;1.00;;;;;;;45.03;16.23;100432.50;5032643;28;20092;-87
2022/08/11 13:08:36;;;;;;;0.98;0.88;;;;;;;45.18;16.42;100422.28;5032012;28;20123;-86
2022/08/11 13:13:53;;;;;;;3.13;0.90;;;;;;;45.49;15.46;100418.94;5035077;28;20049;-86
2022/08/11 13:16:27;;;;;;;3.67;1.00;;;;;;;45.59;15.17;100420.69;5035127;28;20084;-86
2022/08/11 13:18:56;;;;;;;1.00;0.90;;;;;;;45.68;15.07;100417.97;5017644;28;20434;-88
2022/08/11 13:21:23;;;;;;;2.20;1.10;;;;;;;45.76;15.47;100422.81;5034075;28;20525;-87
2022/08/11 13:23:53;;;;;;;3.17;0.90;;;;;;;45.80;14.39;100418.28;5018609;28;20060;-86
2022/08/11 13:26:34;;;;;;;2.25;1.15;;;;;;;45.88;14.82;100405.59;5035113;28;20056;-86
2022/08/11 13:29:16;;;;;;;1.10;0.85;;;;;;;46.03;15.38;100404.47;5034833;28;20050;-86
2022/08/11 13:31:43;;;;;;;2.67;1.10;;;;;;;46.15;14.68;100408.66;5034591;28;20487;-86
2022/08/11 13:34:11;;;;;;;0.88;0.80;;;;;;;46.22;14.73;100408.22;5034856;28;20061;-86
2022/08/11 13:36:38;;;;;;;1.27;1.00;;;;;;;46.25;14.19;100402.84;5034408;28;20576;-85
2022/08/11 13:39:05;;;;;;;5.90;0.93;;;;;;;46.30;14.21;100401.94;5034425;28;20049;-86
2022/08/11 13:41:38;;;;;;;1.60;0.90;;;;;;;46.36;15.38;100399.88;5034069;28;20053;-86
2022/08/11 13:44:10;;;;;;;6.55;0.90;;;;;;;46.43;14.40;100401.06;5032585;28;20057;-86
2022/08/11 13:46:39;;;;;;;2.92;1.02;;;;;;;46.58;14.69;100397.06;5032836;28;20076;-86
2022/08/11 13:49:10;;;;;;;2.47;0.80;;;;;;;46.70;14.70;100393.72;5032608;28;20049;-86
2022/08/11 13:51:38;;;;;;;4.20;0.80;;;;;;;46.82;13.90;100395.13;5033741;28;20049;-87
2022/08/11 13:54:11;;;;;;;1.10;0.77;;;;;;;46.89;14.52;100389.91;5033674;28;20075;-87
2022/08/11 13:56:41;;;;;;;4.10;1.25;;;;;;;46.98;13.35;100399.13;5033416;28;20507;-85
2022/08/11 13:59:08;;;;;;;2.20;1.00;;;;;;;47.09;14.38;100388.53;5033745;28;20465;-86
2022/08/11 14:01:41;;;;;;;1.27;0.70;;;;;;;47.20;13.57;100391.06;5033403;28;20550;-87
2022/08/11 14:04:40;;;;;;;1.67;0.70;;;;;;;47.33;13.27;100381.75;5033505;28;20053;-86
2022/08/11 14:07:09;;;;;;;0.70;0.70;;;;;;;47.41;13.60;100384.91;5033168;28;20050;-87
2022/08/11 14:09:43;;;;;;;1.15;0.93;;;;;;;47.42;12.90;100376.19;5033518;28;20045;-88
2022/08/11 14:15:18;;;;;;;0.70;0.70;;;;;;;47.54;12.46;100374.78;5033334;28;20057;-86
2022/08/11 14:17:52;;;;;;;0.80;0.80;;;;;;;47.57;11.92;100368.56;5033519;28;20144;-86
2022/08/11 14:20:20;;;;;;;2.83;1.02;;;;;;;47.58;12.25;100371.03;5031851;28;20093;-86
2022/08/11 14:23:06;;;;;;;1.30;0.80;;;;;;;47.58;12.26;100367.41;5033237;28;20049;-86
2022/08/11 14:25:33;;;;;;;1.20;0.98;;;;;;;47.57;12.68;100368.56;5032070;28;20068;-86
2022/08/11 14:28:19;;;;;;;0.98;0.70;;;;;;;47.61;12.46;100375.16;5033026;28;20646;-87
2022/08/11 14:31:04;;;;;;;5.68;0.73;;;;;;;47.66;11.75;100371.38;5033412;28;20053;-86
2022/08/11 14:33:32;;;;;;;1.58;0.77;;;;;;;47.71;11.92;100360.03;5032697;28;20057;-86
2022/08/11 14:36:21;;;;;;;1.67;0.70;;;;;;;47.77;12.30;100360.72;5032780;28;20079;-86
2022/08/11 14:38:49;;;;;;;1.10;0.70;;;;;;;47.81;11.88;100364.50;5032924;28;20050;-87
2022/08/11 14:47:14;;;;;;;1.90;0.65;;;;;;;47.75;11.32;100352.66;5033564;28;20053;-86
2022/08/11 14:49:54;;;;;;;1.23;0.70;;;;;;;47.71;10.97;100354.47;5032755;28;20499;-86
2022/08/11 14:52:42;;;;;;;0.75;0.75;;;;;;;47.72;11.33;100350.56;5033319;28;20063;-86
2022/08/11 14:57:55;;;;;;;1.45;0.77;;;;;;;47.68;11.51;100347.56;5033009;28;20517;-86
2022/08/11 15:00:24;;;;;;;1.00;0.60;;;;;;;47.68;11.42;100344.78;5032266;28;20053;-85
2022/08/11 15:03:09;;;;;;;0.93;0.77;;;;;;;47.70;11.25;100341.66;5032756;28;20050;-85
2022/08/11 15:06:00;;;;;;;2.33;0.80;;;;;;;47.67;11.67;100339.56;5032492;28;20133;-87
2022/08/11 15:14:05;;;;;;;1.65;0.95;;;;;;;47.89;12.87;100337.81;5031985;28;20060;-86
2022/08/11 15:19:19;;;;;;;1.13;0.90;;;;;;;47.99;11.73;100334.66;5031523;28;20399;-86
2022/08/11 15:24:35;;;;;;;2.05;0.70;;;;;;;48.03;10.80;100335.66;5032559;28;20053;-86
2022/08/11 15:47:38;;;;;;;0.85;0.70;;;;;;;47.43;10.65;100310.13;5031640;28;20049;-86
2022/08/11 15:50:32;;;;;;;0.98;0.70;;;;;;;47.20;11.43;100301.88;5031055;28;20049;-85
2022/08/11 15:53:06;;;;;;;0.95;0.70;;;;;;;47.09;10.76;100301.38;5013852;28;20049;-85
2022/08/11 15:55:36;;;;;;;5.25;0.75;;;;;;;46.95;11.46;100301.44;5013564;28;20056;-85
2022/08/11 16:07:00;;;;;;;0.50;0.50;;;;;;;46.29;11.50;100298.13;5030996;28;20049;-85
2022/08/11 16:09:31;;;;;;;1.85;0.80;;;;;;;46.23;11.66;100288.25;5031072;28;20417;-85
2022/08/11 16:12:17;;;;;;;17.75;2.53;;;;;;;46.12;11.61;100284.91;5016109;28;20075;-85
2022/08/11 16:17:39;;;;;;;2.28;0.60;;;;;;;45.90;11.55;100280.16;5030862;28;20636;-86
2022/08/11 16:20:07;;;;;;;;;;;;;;;45.75;12.35;100273.78;5008489;28;20046;-85
2022/08/11 16:22:42;;;;;;;1.48;0.70;;;;;;;45.78;11.67;100278.72;5011710;28;19947;-84
2022/08/11 16:25:25;;;;;;;1.13;0.77;;;;;;;45.66;10.78;100267.34;5011275;28;20050;-85
2022/08/11 16:28:13;;;;;;;1.40;0.60;;;;;;;45.53;11.32;100272.63;5010388;28;20053;-85
2022/08/11 16:30:42;;;;;;;0.98;0.65;;;;;;;45.41;11.41;100258.41;5012623;28;20046;-84
2022/08/11 16:33:11;;;;;;;1.30;0.90;;;;;;;45.30;11.65;100260.59;4997269;28;20419;-84
2022/08/11 16:38:48;;;;;;;1.88;0.70;;;;;;;44.92;11.68;100258.84;5011710;28;20061;-85
2022/08/11 16:46:58;;;;;;;0.60;0.60;;;;;;;44.70;11.74;100271.50;4993735;28;20042;-83
2022/08/11 16:49:05;;;;;;;1.15;0.63;;;;;;;43.60;11.83;100257.66;4984163;28;20463;-85
2022/08/11 16:53:18;;;;;;;0.82;0.65;;;;;;;42.81;12.12;100257.75;5004198;28;20071;-83
2022/08/11 17:00:05;;;;;;;0.88;0.75;;;;;;;41.29;13.05;100243.28;4988840;28;20538;-83
2022/08/11 17:14:29;;;;;;;1.20;0.70;;;;;;;38.77;14.40;100255.31;4989155;28;20066;-84
2022/08/11 17:17:05;;;;;;;1.50;0.75;;;;;;;38.44;14.32;100255.31;4984399;28;20062;-82
2022/08/11 17:19:42;;;;;;;0.70;0.70;;;;;;;38.08;14.81;100248.66;4993623;28;20066;-82
2022/08/11 17:25:18;;;;;;;3.13;0.70;;;;;;;37.42;15.09;100245.72;5016420;28;20088;-83
2022/08/11 17:27:47;;;;;;;3.05;0.77;;;;;;;37.16;15.54;100242.66;5013213;28;20100;-82
2022/08/11 17:35:27;;;;;;;2.20;0.70;;;;;;;36.88;15.73;100238.94;5016452;28;20045;-82
2022/08/11 17:35:57;;;;;;;1.50;0.60;;;;;;;36.43;16.27;100241.53;5032175;28;20057;-82
2022/08/11 17:38:24;;;;;;;2.92;1.10;;;;;;;36.23;16.38;100242.03;5031378;28;20053;-83